Terminal Aerodrome Forecast
Issued by NWS Charleston, SC

Current Version | Previous Version | Text Only | Print | Product List | Glossary Off
Versions: 1 2 3 4 5 6 7 8 9 10 11 12 13 14 15 16 17 18 19 20

000
FTUS42 KCHS 232330
TAFCHS
TAF
KCHS 232330Z 2400/2424 01008KT P6SM SCT010 BKN100
     FM241300 36007KT P6SM SCT040
     FM241800 35005KT P6SM SKC=

USA.gov is the U.S. government's official web portal to all federal, state and local government web resources and services.